sensor_id;sensor_type;location;lat;lon;timestamp;P1;durP1;ratioP1;P2;durP2;ratioP2
72797;SDS011;61084;55.816;37.036;2023-05-10T00:00:13;16.27;;;6.07;;
72797;SDS011;61084;55.816;37.036;2023-05-10T00:05:05;18.95;;;6.60;;
72797;SDS011;61084;55.816;37.036;2023-05-10T00:07:32;19.27;;;6.75;;
72797;SDS011;61084;55.816;37.036;2023-05-10T00:09:58;19.70;;;6.75;;
72797;SDS011;61084;55.816;37.036;2023-05-10T00:12:26;20.40;;;6.70;;
72797;SDS011;61084;55.816;37.036;2023-05-10T00:14:51;20.40;;;7.03;;
72797;SDS011;61084;55.816;37.036;2023-05-10T00:17:17;22.58;;;7.72;;
72797;SDS011;61084;55.816;37.036;2023-05-10T00:19:44;22.52;;;7.80;;
72797;SDS011;61084;55.816;37.036;2023-05-10T00:22:10;18.70;;;6.85;;
72797;SDS011;61084;55.816;37.036;2023-05-10T00:24:35;16.05;;;6.95;;
72797;SDS011;61084;55.816;37.036;2023-05-10T00:27:01;21.35;;;7.22;;
72797;SDS011;61084;55.816;37.036;2023-05-10T00:29:29;15.43;;;6.55;;
72797;SDS011;61084;55.816;37.036;2023-05-10T00:31:56;16.15;;;7.13;;
72797;SDS011;61084;55.816;37.036;2023-05-10T00:34:22;15.73;;;6.82;;
72797;SDS011;61084;55.816;37.036;2023-05-10T00:36:47;15.13;;;6.75;;
72797;SDS011;61084;55.816;37.036;2023-05-10T00:39:13;18.55;;;7.30;;
72797;SDS011;61084;55.816;37.036;2023-05-10T00:41:40;16.38;;;6.97;;
72797;SDS011;61084;55.816;37.036;2023-05-10T00:44:06;24.80;;;8.20;;
72797;SDS011;61084;55.816;37.036;2023-05-10T00:46:32;18.88;;;7.82;;
72797;SDS011;61084;55.816;37.036;2023-05-10T00:48:58;20.98;;;7.55;;
72797;SDS011;61084;55.816;37.036;2023-05-10T00:51:24;25.80;;;7.70;;
72797;SDS011;61084;55.816;37.036;2023-05-10T00:56:17;18.15;;;6.75;;
72797;SDS011;61084;55.816;37.036;2023-05-10T00:58:45;18.90;;;7.30;;
72797;SDS011;61084;55.816;37.036;2023-05-10T01:01:11;16.92;;;7.15;;
72797;SDS011;61084;55.816;37.036;2023-05-10T01:03:37;15.88;;;6.63;;
72797;SDS011;61084;55.816;37.036;2023-05-10T01:06:05;13.02;;;6.22;;
72797;SDS011;61084;55.816;37.036;2023-05-10T01:08:31;17.45;;;7.18;;
72797;SDS011;61084;55.816;37.036;2023-05-10T01:10:57;17.17;;;7.38;;
72797;SDS011;61084;55.816;37.036;2023-05-10T01:13:33;16.63;;;6.93;;
72797;SDS011;61084;55.816;37.036;2023-05-10T01:16:04;17.17;;;7.47;;
72797;SDS011;61084;55.816;37.036;2023-05-10T01:18:33;14.65;;;6.45;;
72797;SDS011;61084;55.816;37.036;2023-05-10T01:33:33;15.75;;;5.97;;
72797;SDS011;61084;55.816;37.036;2023-05-10T01:36:12;15.43;;;5.90;;
72797;SDS011;61084;55.816;37.036;2023-05-10T01:43:52;16.10;;;5.85;;
72797;SDS011;61084;55.816;37.036;2023-05-10T01:46:41;12.88;;;5.55;;
72797;SDS011;61084;55.816;37.036;2023-05-10T01:49:10;11.85;;;5.18;;
72797;SDS011;61084;55.816;37.036;2023-05-10T01:51:44;13.00;;;5.22;;
72797;SDS011;61084;55.816;37.036;2023-05-10T01:54:13;13.60;;;5.43;;
72797;SDS011;61084;55.816;37.036;2023-05-10T01:56:43;11.05;;;5.72;;
72797;SDS011;61084;55.816;37.036;2023-05-10T01:59:15;11.35;;;5.20;;
72797;SDS011;61084;55.816;37.036;2023-05-10T02:01:44;14.05;;;5.15;;
72797;SDS011;61084;55.816;37.036;2023-05-10T02:04:12;10.23;;;4.80;;
72797;SDS011;61084;55.816;37.036;2023-05-10T02:06:41;14.32;;;5.25;;
72797;SDS011;61084;55.816;37.036;2023-05-10T02:09:09;10.95;;;4.80;;
72797;SDS011;61084;55.816;37.036;2023-05-10T02:11:41;13.15;;;4.85;;
72797;SDS011;61084;55.816;37.036;2023-05-10T02:14:09;12.20;;;4.80;;
72797;SDS011;61084;55.816;37.036;2023-05-10T02:16:37;14.02;;;5.13;;
72797;SDS011;61084;55.816;37.036;2023-05-10T02:19:04;10.35;;;5.05;;
72797;SDS011;61084;55.816;37.036;2023-05-10T02:21:34;12.77;;;5.43;;
72797;SDS011;61084;55.816;37.036;2023-05-10T02:26:28;8.98;;;4.68;;
72797;SDS011;61084;55.816;37.036;2023-05-10T02:28:55;12.88;;;5.15;;
72797;SDS011;61084;55.816;37.036;2023-05-10T02:31:22;11.02;;;5.57;;
72797;SDS011;61084;55.816;37.036;2023-05-10T02:33:48;15.68;;;6.43;;
72797;SDS011;61084;55.816;37.036;2023-05-10T02:36:17;14.57;;;5.40;;
72797;SDS011;61084;55.816;37.036;2023-05-10T02:38:46;18.13;;;5.82;;
72797;SDS011;61084;55.816;37.036;2023-05-10T02:41:13;11.98;;;5.47;;
72797;SDS011;61084;55.816;37.036;2023-05-10T02:43:41;14.65;;;5.82;;
72797;SDS011;61084;55.816;37.036;2023-05-10T02:46:09;16.05;;;6.35;;
72797;SDS011;61084;55.816;37.036;2023-05-10T02:48:35;15.60;;;6.28;;
72797;SDS011;61084;55.816;37.036;2023-05-10T02:51:04;13.70;;;6.32;;
72797;SDS011;61084;55.816;37.036;2023-05-10T02:53:36;16.60;;;6.18;;
72797;SDS011;61084;55.816;37.036;2023-05-10T02:56:14;14.68;;;5.25;;
72797;SDS011;61084;55.816;37.036;2023-05-10T02:58:46;22.15;;;5.95;;
72797;SDS011;61084;55.816;37.036;2023-05-10T03:01:11;13.13;;;5.10;;
72797;SDS011;61084;55.816;37.036;2023-05-10T03:03:37;13.00;;;5.50;;
72797;SDS011;61084;55.816;37.036;2023-05-10T03:06:03;11.93;;;5.28;;
72797;SDS011;61084;55.816;37.036;2023-05-10T03:08:30;15.82;;;5.38;;
72797;SDS011;61084;55.816;37.036;2023-05-10T03:13:29;13.40;;;5.57;;
72797;SDS011;61084;55.816;37.036;2023-05-10T03:16:08;13.68;;;5.53;;
72797;SDS011;61084;55.816;37.036;2023-05-10T03:21:32;15.30;;;6.13;;
72797;SDS011;61084;55.816;37.036;2023-05-10T03:24:02;16.55;;;5.63;;
72797;SDS011;61084;55.816;37.036;2023-05-10T03:26:33;15.40;;;6.05;;
72797;SDS011;61084;55.816;37.036;2023-05-10T03:29:08;14.80;;;5.47;;
72797;SDS011;61084;55.816;37.036;2023-05-10T03:31:37;19.17;;;5.75;;
72797;SDS011;61084;55.816;37.036;2023-05-10T03:34:04;14.93;;;5.68;;
72797;SDS011;61084;55.816;37.036;2023-05-10T03:39:16;15.65;;;5.53;;
72797;SDS011;61084;55.816;37.036;2023-05-10T03:41:47;17.95;;;4.78;;
72797;SDS011;61084;55.816;37.036;2023-05-10T03:44:13;14.55;;;5.30;;
72797;SDS011;61084;55.816;37.036;2023-05-10T03:46:39;12.43;;;5.55;;
72797;SDS011;61084;55.816;37.036;2023-05-10T03:49:05;13.38;;;5.95;;
72797;SDS011;61084;55.816;37.036;2023-05-10T03:51:31;16.15;;;5.65;;
72797;SDS011;61084;55.816;37.036;2023-05-10T03:53:58;18.40;;;5.68;;
72797;SDS011;61084;55.816;37.036;2023-05-10T03:56:24;11.45;;;5.55;;
72797;SDS011;61084;55.816;37.036;2023-05-10T03:58:50;15.00;;;5.53;;
72797;SDS011;61084;55.816;37.036;2023-05-10T04:01:16;14.07;;;5.10;;
72797;SDS011;61084;55.816;37.036;2023-05-10T04:03:42;14.98;;;5.22;;
72797;SDS011;61084;55.816;37.036;2023-05-10T04:06:08;12.70;;;5.28;;
72797;SDS011;61084;55.816;37.036;2023-05-10T04:08:37;13.18;;;4.60;;
72797;SDS011;61084;55.816;37.036;2023-05-10T04:11:07;11.07;;;4.70;;
72797;SDS011;61084;55.816;37.036;2023-05-10T04:13:33;18.00;;;4.97;;
72797;SDS011;61084;55.816;37.036;2023-05-10T04:16:00;9.52;;;5.00;;
72797;SDS011;61084;55.816;37.036;2023-05-10T04:18:26;10.15;;;5.30;;
72797;SDS011;61084;55.816;37.036;2023-05-10T04:20:52;10.10;;;4.90;;
72797;SDS011;61084;55.816;37.036;2023-05-10T04:23:18;8.32;;;5.00;;
72797;SDS011;61084;55.816;37.036;2023-05-10T04:25:44;9.10;;;4.57;;
72797;SDS011;61084;55.816;37.036;2023-05-10T04:28:10;10.60;;;5.45;;
72797;SDS011;61084;55.816;37.036;2023-05-10T04:30:36;9.38;;;5.40;;
72797;SDS011;61084;55.816;37.036;2023-05-10T04:33:02;10.98;;;5.40;;
72797;SDS011;61084;55.816;37.036;2023-05-10T04:35:28;9.40;;;4.93;;
72797;SDS011;61084;55.816;37.036;2023-05-10T04:37:55;8.32;;;4.25;;
72797;SDS011;61084;55.816;37.036;2023-05-10T04:40:21;9.15;;;4.43;;
72797;SDS011;61084;55.816;37.036;2023-05-10T04:42:47;11.77;;;4.60;;
72797;SDS011;61084;55.816;37.036;2023-05-10T04:45:13;10.05;;;4.65;;
72797;SDS011;61084;55.816;37.036;2023-05-10T04:47:42;9.73;;;3.90;;
72797;SDS011;61084;55.816;37.036;2023-05-10T04:50:08;9.50;;;4.03;;
72797;SDS011;61084;55.816;37.036;2023-05-10T04:52:34;8.00;;;3.80;;
72797;SDS011;61084;55.816;37.036;2023-05-10T04:55:01;10.32;;;3.97;;
72797;SDS011;61084;55.816;37.036;2023-05-10T04:57:27;14.27;;;4.50;;
72797;SDS011;61084;55.816;37.036;2023-05-10T04:59:54;8.93;;;4.47;;
72797;SDS011;61084;55.816;37.036;2023-05-10T05:02:20;7.43;;;4.05;;
72797;SDS011;61084;55.816;37.036;2023-05-10T05:04:47;13.77;;;4.40;;
72797;SDS011;61084;55.816;37.036;2023-05-10T05:07:12;10.98;;;3.90;;
72797;SDS011;61084;55.816;37.036;2023-05-10T05:09:38;9.07;;;3.85;;
72797;SDS011;61084;55.816;37.036;2023-05-10T05:12:04;8.85;;;4.03;;
72797;SDS011;61084;55.816;37.036;2023-05-10T05:14:30;7.63;;;3.70;;
72797;SDS011;61084;55.816;37.036;2023-05-10T05:16:57;6.95;;;3.40;;
72797;SDS011;61084;55.816;37.036;2023-05-10T05:19:23;11.73;;;3.17;;
72797;SDS011;61084;55.816;37.036;2023-05-10T05:21:49;6.82;;;3.63;;
72797;SDS011;61084;55.816;37.036;2023-05-10T05:24:15;12.10;;;3.50;;
72797;SDS011;61084;55.816;37.036;2023-05-10T05:26:41;11.35;;;3.55;;
72797;SDS011;61084;55.816;37.036;2023-05-10T05:29:07;6.88;;;3.45;;
72797;SDS011;61084;55.816;37.036;2023-05-10T05:31:33;15.30;;;4.10;;
72797;SDS011;61084;55.816;37.036;2023-05-10T05:33:59;11.60;;;4.10;;
72797;SDS011;61084;55.816;37.036;2023-05-10T05:36:26;8.95;;;4.80;;
72797;SDS011;61084;55.816;37.036;2023-05-10T05:38:53;9.80;;;4.13;;
72797;SDS011;61084;55.816;37.036;2023-05-10T05:41:19;7.47;;;3.30;;
72797;SDS011;61084;55.816;37.036;2023-05-10T05:43:45;10.90;;;4.13;;
72797;SDS011;61084;55.816;37.036;2023-05-10T05:46:11;10.85;;;3.50;;
72797;SDS011;61084;55.816;37.036;2023-05-10T05:48:37;8.35;;;3.97;;
72797;SDS011;61084;55.816;37.036;2023-05-10T05:51:03;11.55;;;4.20;;
72797;SDS011;61084;55.816;37.036;2023-05-10T05:53:29;7.43;;;3.35;;
72797;SDS011;61084;55.816;37.036;2023-05-10T05:55:55;8.00;;;3.50;;
72797;SDS011;61084;55.816;37.036;2023-05-10T05:58:25;7.05;;;3.10;;
72797;SDS011;61084;55.816;37.036;2023-05-10T06:00:51;10.60;;;3.10;;
72797;SDS011;61084;55.816;37.036;2023-05-10T06:05:44;9.77;;;2.35;;
72797;SDS011;61084;55.816;37.036;2023-05-10T06:08:10;7.40;;;2.63;;
72797;SDS011;61084;55.816;37.036;2023-05-10T06:10:36;6.13;;;2.50;;
72797;SDS011;61084;55.816;37.036;2023-05-10T06:13:03;8.48;;;2.90;;
72797;SDS011;61084;55.816;37.036;2023-05-10T06:15:29;8.15;;;3.28;;
72797;SDS011;61084;55.816;37.036;2023-05-10T06:17:55;7.55;;;3.58;;
72797;SDS011;61084;55.816;37.036;2023-05-10T06:20:21;6.07;;;2.50;;
72797;SDS011;61084;55.816;37.036;2023-05-10T06:22:47;6.22;;;3.08;;
72797;SDS011;61084;55.816;37.036;2023-05-10T06:25:13;9.07;;;2.45;;
72797;SDS011;61084;55.816;37.036;2023-05-10T06:27:40;8.90;;;2.58;;
72797;SDS011;61084;55.816;37.036;2023-05-10T06:30:06;5.78;;;1.60;;
72797;SDS011;61084;55.816;37.036;2023-05-10T06:32:34;5.90;;;1.70;;
72797;SDS011;61084;55.816;37.036;2023-05-10T06:35:01;4.13;;;2.42;;
72797;SDS011;61084;55.816;37.036;2023-05-10T06:37:29;5.13;;;1.98;;
72797;SDS011;61084;55.816;37.036;2023-05-10T06:39:55;3.05;;;1.90;;
72797;SDS011;61084;55.816;37.036;2023-05-10T06:42:22;5.60;;;1.95;;
72797;SDS011;61084;55.816;37.036;2023-05-10T06:44:52;3.20;;;1.80;;
72797;SDS011;61084;55.816;37.036;2023-05-10T06:47:18;5.28;;;2.90;;
72797;SDS011;61084;55.816;37.036;2023-05-10T06:49:46;2.80;;;1.80;;
72797;SDS011;61084;55.816;37.036;2023-05-10T06:52:12;3.60;;;1.83;;
72797;SDS011;61084;55.816;37.036;2023-05-10T06:54:38;5.25;;;1.92;;
72797;SDS011;61084;55.816;37.036;2023-05-10T06:57:05;7.40;;;2.25;;
72797;SDS011;61084;55.816;37.036;2023-05-10T06:59:32;3.58;;;2.10;;
72797;SDS011;61084;55.816;37.036;2023-05-10T07:01:57;4.55;;;2.10;;
72797;SDS011;61084;55.816;37.036;2023-05-10T07:04:24;3.30;;;1.70;;
72797;SDS011;61084;55.816;37.036;2023-05-10T07:06:50;5.75;;;1.67;;
72797;SDS011;61084;55.816;37.036;2023-05-10T07:09:16;4.15;;;1.70;;
72797;SDS011;61084;55.816;37.036;2023-05-10T07:11:42;4.90;;;2.00;;
72797;SDS011;61084;55.816;37.036;2023-05-10T07:14:08;3.38;;;1.80;;
72797;SDS011;61084;55.816;37.036;2023-05-10T07:16:34;5.93;;;1.70;;
72797;SDS011;61084;55.816;37.036;2023-05-10T07:18:59;4.88;;;2.10;;
72797;SDS011;61084;55.816;37.036;2023-05-10T07:21:25;3.50;;;1.73;;
72797;SDS011;61084;55.816;37.036;2023-05-10T07:23:54;4.28;;;1.88;;
72797;SDS011;61084;55.816;37.036;2023-05-10T07:26:21;7.05;;;2.60;;
72797;SDS011;61084;55.816;37.036;2023-05-10T07:28:47;7.00;;;1.83;;
72797;SDS011;61084;55.816;37.036;2023-05-10T07:31:13;3.97;;;1.60;;
72797;SDS011;61084;55.816;37.036;2023-05-10T07:33:38;3.78;;;1.50;;
72797;SDS011;61084;55.816;37.036;2023-05-10T07:36:04;2.63;;;1.33;;
72797;SDS011;61084;55.816;37.036;2023-05-10T07:38:30;5.53;;;1.77;;
72797;SDS011;61084;55.816;37.036;2023-05-10T07:40:56;2.92;;;1.63;;
72797;SDS011;61084;55.816;37.036;2023-05-10T07:43:22;2.72;;;1.20;;
72797;SDS011;61084;55.816;37.036;2023-05-10T07:45:47;4.82;;;1.30;;
72797;SDS011;61084;55.816;37.036;2023-05-10T07:48:13;3.17;;;1.73;;
72797;SDS011;61084;55.816;37.036;2023-05-10T07:50:39;3.33;;;1.50;;
72797;SDS011;61084;55.816;37.036;2023-05-10T07:53:05;3.67;;;1.30;;
72797;SDS011;61084;55.816;37.036;2023-05-10T07:55:31;2.28;;;1.40;;
72797;SDS011;61084;55.816;37.036;2023-05-10T07:57:57;3.20;;;1.90;;
72797;SDS011;61084;55.816;37.036;2023-05-10T08:00:23;3.85;;;2.33;;
72797;SDS011;61084;55.816;37.036;2023-05-10T08:02:49;3.08;;;1.30;;
72797;SDS011;61084;55.816;37.036;2023-05-10T08:05:15;4.13;;;1.13;;
72797;SDS011;61084;55.816;37.036;2023-05-10T08:07:41;3.65;;;1.60;;
72797;SDS011;61084;55.816;37.036;2023-05-10T08:10:08;3.80;;;1.40;;
72797;SDS011;61084;55.816;37.036;2023-05-10T08:12:34;3.40;;;1.48;;
72797;SDS011;61084;55.816;37.036;2023-05-10T08:15:01;2.92;;;1.55;;
72797;SDS011;61084;55.816;37.036;2023-05-10T08:17:30;6.68;;;1.83;;
72797;SDS011;61084;55.816;37.036;2023-05-10T08:19:55;4.28;;;1.40;;
72797;SDS011;61084;55.816;37.036;2023-05-10T08:22:21;1.73;;;1.20;;
72797;SDS011;61084;55.816;37.036;2023-05-10T08:24:47;2.42;;;1.60;;
72797;SDS011;61084;55.816;37.036;2023-05-10T08:27:13;3.38;;;1.20;;
72797;SDS011;61084;55.816;37.036;2023-05-10T08:29:39;1.98;;;1.25;;
72797;SDS011;61084;55.816;37.036;2023-05-10T08:32:05;5.30;;;0.95;;
72797;SDS011;61084;55.816;37.036;2023-05-10T08:34:31;2.38;;;1.40;;
72797;SDS011;61084;55.816;37.036;2023-05-10T08:39:23;2.63;;;1.42;;
72797;SDS011;61084;55.816;37.036;2023-05-10T08:41:48;2.92;;;1.15;;
72797;SDS011;61084;55.816;37.036;2023-05-10T08:44:19;2.70;;;1.33;;
72797;SDS011;61084;55.816;37.036;2023-05-10T08:46:46;4.70;;;1.33;;
72797;SDS011;61084;55.816;37.036;2023-05-10T08:49:16;1.90;;;0.88;;
72797;SDS011;61084;55.816;37.036;2023-05-10T08:51:49;3.10;;;1.08;;
72797;SDS011;61084;55.816;37.036;2023-05-10T08:54:17;2.72;;;1.27;;
72797;SDS011;61084;55.816;37.036;2023-05-10T08:56:44;7.70;;;1.02;;
72797;SDS011;61084;55.816;37.036;2023-05-10T08:59:10;3.35;;;1.13;;
72797;SDS011;61084;55.816;37.036;2023-05-10T09:01:37;2.08;;;1.45;;
72797;SDS011;61084;55.816;37.036;2023-05-10T09:04:04;5.68;;;1.58;;
72797;SDS011;61084;55.816;37.036;2023-05-10T09:06:30;3.55;;;1.17;;
72797;SDS011;61084;55.816;37.036;2023-05-10T09:08:57;4.93;;;1.88;;
72797;SDS011;61084;55.816;37.036;2023-05-10T09:13:50;1.92;;;1.10;;
72797;SDS011;61084;55.816;37.036;2023-05-10T09:16:17;2.83;;;1.27;;
72797;SDS011;61084;55.816;37.036;2023-05-10T09:18:43;3.30;;;1.10;;
72797;SDS011;61084;55.816;37.036;2023-05-10T09:21:09;3.72;;;1.35;;
72797;SDS011;61084;55.816;37.036;2023-05-10T09:23:36;2.92;;;1.20;;
72797;SDS011;61084;55.816;37.036;2023-05-10T09:26:05;1.73;;;1.33;;
72797;SDS011;61084;55.816;37.036;2023-05-10T09:28:31;2.17;;;1.10;;
72797;SDS011;61084;55.816;37.036;2023-05-10T09:30:58;1.35;;;0.85;;
72797;SDS011;61084;55.816;37.036;2023-05-10T09:33:24;2.45;;;1.20;;
72797;SDS011;61084;55.816;37.036;2023-05-10T09:38:17;3.17;;;1.55;;
72797;SDS011;61084;55.816;37.036;2023-05-10T09:40:43;1.83;;;1.30;;
72797;SDS011;61084;55.816;37.036;2023-05-10T09:43:20;6.55;;;1.70;;
72797;SDS011;61084;55.816;37.036;2023-05-10T09:45:47;3.63;;;1.23;;
72797;SDS011;61084;55.816;37.036;2023-05-10T09:48:15;3.50;;;1.23;;
72797;SDS011;61084;55.816;37.036;2023-05-10T09:50:41;1.67;;;0.82;;
72797;SDS011;61084;55.816;37.036;2023-05-10T09:53:07;2.33;;;0.90;;
72797;SDS011;61084;55.816;37.036;2023-05-10T10:00:37;2.80;;;1.08;;
72797;SDS011;61084;55.816;37.036;2023-05-10T10:03:04;2.58;;;1.30;;
72797;SDS011;61084;55.816;37.036;2023-05-10T10:05:31;2.70;;;1.00;;
72797;SDS011;61084;55.816;37.036;2023-05-10T10:08:04;2.17;;;1.20;;
72797;SDS011;61084;55.816;37.036;2023-05-10T10:10:31;3.55;;;1.10;;
72797;SDS011;61084;55.816;37.036;2023-05-10T10:12:58;2.90;;;1.23;;
72797;SDS011;61084;55.816;37.036;2023-05-10T10:15:24;3.08;;;1.17;;
72797;SDS011;61084;55.816;37.036;2023-05-10T10:17:51;2.35;;;0.95;;
72797;SDS011;61084;55.816;37.036;2023-05-10T10:20:19;2.17;;;1.48;;
72797;SDS011;61084;55.816;37.036;2023-05-10T10:22:47;3.70;;;1.05;;
72797;SDS011;61084;55.816;37.036;2023-05-10T10:25:16;4.53;;;1.40;;
72797;SDS011;61084;55.816;37.036;2023-05-10T10:30:30;1.45;;;1.02;;
72797;SDS011;61084;55.816;37.036;2023-05-10T10:36:09;4.47;;;1.10;;
72797;SDS011;61084;55.816;37.036;2023-05-10T10:41:32;3.20;;;0.90;;
72797;SDS011;61084;55.816;37.036;2023-05-10T10:47:02;1.58;;;0.93;;
72797;SDS011;61084;55.816;37.036;2023-05-10T10:49:31;10.77;;;2.03;;
72797;SDS011;61084;55.816;37.036;2023-05-10T10:55:00;2.55;;;1.33;;
72797;SDS011;61084;55.816;37.036;2023-05-10T10:57:43;1.40;;;1.00;;
72797;SDS011;61084;55.816;37.036;2023-05-10T11:02:43;2.30;;;1.00;;
72797;SDS011;61084;55.816;37.036;2023-05-10T11:07:56;3.00;;;0.98;;
72797;SDS011;61084;55.816;37.036;2023-05-10T11:10:25;2.33;;;1.17;;
72797;SDS011;61084;55.816;37.036;2023-05-10T11:13:02;5.60;;;1.20;;
72797;SDS011;61084;55.816;37.036;2023-05-10T11:15:36;2.63;;;0.93;;
72797;SDS011;61084;55.816;37.036;2023-05-10T11:18:24;3.25;;;1.08;;
72797;SDS011;61084;55.816;37.036;2023-05-10T11:20:58;2.00;;;1.20;;
72797;SDS011;61084;55.816;37.036;2023-05-10T11:23:31;3.97;;;1.10;;
72797;SDS011;61084;55.816;37.036;2023-05-10T11:26:00;1.48;;;1.10;;
72797;SDS011;61084;55.816;37.036;2023-05-10T11:28:29;7.13;;;1.20;;
72797;SDS011;61084;55.816;37.036;2023-05-10T11:30:56;2.30;;;1.30;;
72797;SDS011;61084;55.816;37.036;2023-05-10T11:33:23;1.52;;;1.00;;
72797;SDS011;61084;55.816;37.036;2023-05-10T11:35:49;4.05;;;1.02;;
72797;SDS011;61084;55.816;37.036;2023-05-10T11:38:16;2.42;;;1.35;;
72797;SDS011;61084;55.816;37.036;2023-05-10T11:40:42;1.70;;;1.15;;
72797;SDS011;61084;55.816;37.036;2023-05-10T11:43:09;5.00;;;1.25;;
72797;SDS011;61084;55.816;37.036;2023-05-10T11:45:36;2.65;;;1.02;;
72797;SDS011;61084;55.816;37.036;2023-05-10T11:48:03;2.50;;;1.10;;
72797;SDS011;61084;55.816;37.036;2023-05-10T11:50:30;3.20;;;1.20;;
72797;SDS011;61084;55.816;37.036;2023-05-10T11:55:22;2.63;;;1.08;;
72797;SDS011;61084;55.816;37.036;2023-05-10T11:58:00;2.47;;;1.45;;
72797;SDS011;61084;55.816;37.036;2023-05-10T12:00:31;2.95;;;1.40;;
72797;SDS011;61084;55.816;37.036;2023-05-10T12:02:57;2.45;;;1.30;;
72797;SDS011;61084;55.816;37.036;2023-05-10T12:05:25;2.35;;;1.30;;
72797;SDS011;61084;55.816;37.036;2023-05-10T12:08:10;3.30;;;1.38;;
72797;SDS011;61084;55.816;37.036;2023-05-10T12:10:37;3.13;;;1.23;;
72797;SDS011;61084;55.816;37.036;2023-05-10T12:13:02;1.58;;;1.17;;
72797;SDS011;61084;55.816;37.036;2023-05-10T12:15:28;2.28;;;1.13;;
72797;SDS011;61084;55.816;37.036;2023-05-10T12:17:54;3.67;;;1.38;;
72797;SDS011;61084;55.816;37.036;2023-05-10T12:20:26;3.92;;;1.50;;
72797;SDS011;61084;55.816;37.036;2023-05-10T12:22:53;3.03;;;1.30;;
72797;SDS011;61084;55.816;37.036;2023-05-10T12:25:23;6.05;;;1.33;;
72797;SDS011;61084;55.816;37.036;2023-05-10T12:27:51;2.20;;;1.30;;
72797;SDS011;61084;55.816;37.036;2023-05-10T12:30:24;3.33;;;1.50;;
72797;SDS011;61084;55.816;37.036;2023-05-10T12:32:51;3.15;;;1.50;;
72797;SDS011;61084;55.816;37.036;2023-05-10T12:35:18;4.40;;;1.40;;
72797;SDS011;61084;55.816;37.036;2023-05-10T12:37:50;3.20;;;1.50;;
72797;SDS011;61084;55.816;37.036;2023-05-10T12:40:16;2.75;;;1.60;;
72797;SDS011;61084;55.816;37.036;2023-05-10T12:42:43;3.55;;;1.50;;
72797;SDS011;61084;55.816;37.036;2023-05-10T12:45:10;3.33;;;1.23;;
72797;SDS011;61084;55.816;37.036;2023-05-10T12:50:02;1.98;;;1.25;;
72797;SDS011;61084;55.816;37.036;2023-05-10T12:52:31;1.92;;;1.15;;
72797;SDS011;61084;55.816;37.036;2023-05-10T12:54:58;3.83;;;1.65;;
72797;SDS011;61084;55.816;37.036;2023-05-10T12:57:26;3.75;;;1.20;;
72797;SDS011;61084;55.816;37.036;2023-05-10T12:59:53;3.25;;;1.52;;
72797;SDS011;61084;55.816;37.036;2023-05-10T13:04:46;2.95;;;1.15;;
72797;SDS011;61084;55.816;37.036;2023-05-10T13:07:12;2.60;;;1.00;;
72797;SDS011;61084;55.816;37.036;2023-05-10T13:09:39;3.03;;;1.45;;
72797;SDS011;61084;55.816;37.036;2023-05-10T13:12:06;2.05;;;1.40;;
72797;SDS011;61084;55.816;37.036;2023-05-10T13:14:32;1.63;;;1.10;;
72797;SDS011;61084;55.816;37.036;2023-05-10T13:19:25;3.15;;;1.30;;
72797;SDS011;61084;55.816;37.036;2023-05-10T13:21:51;5.43;;;1.45;;
72797;SDS011;61084;55.816;37.036;2023-05-10T13:24:17;2.42;;;1.05;;
72797;SDS011;61084;55.816;37.036;2023-05-10T13:26:43;3.00;;;1.65;;
72797;SDS011;61084;55.816;37.036;2023-05-10T13:29:09;2.53;;;1.30;;
72797;SDS011;61084;55.816;37.036;2023-05-10T13:31:36;6.18;;;1.60;;
72797;SDS011;61084;55.816;37.036;2023-05-10T13:34:03;2.97;;;1.50;;
72797;SDS011;61084;55.816;37.036;2023-05-10T13:36:29;2.75;;;1.60;;
72797;SDS011;61084;55.816;37.036;2023-05-10T13:38:58;6.43;;;1.58;;
72797;SDS011;61084;55.816;37.036;2023-05-10T13:41:24;2.45;;;1.33;;
72797;SDS011;61084;55.816;37.036;2023-05-10T13:43:50;4.97;;;2.13;;
72797;SDS011;61084;55.816;37.036;2023-05-10T13:46:16;4.78;;;1.70;;
72797;SDS011;61084;55.816;37.036;2023-05-10T13:48:42;4.22;;;1.35;;
72797;SDS011;61084;55.816;37.036;2023-05-10T13:51:08;4.53;;;1.77;;
72797;SDS011;61084;55.816;37.036;2023-05-10T13:53:34;2.55;;;1.30;;
72797;SDS011;61084;55.816;37.036;2023-05-10T13:56:00;4.30;;;1.98;;
72797;SDS011;61084;55.816;37.036;2023-05-10T13:58:28;2.55;;;1.40;;
72797;SDS011;61084;55.816;37.036;2023-05-10T14:00:54;2.67;;;1.65;;
72797;SDS011;61084;55.816;37.036;2023-05-10T14:03:21;4.20;;;2.22;;
72797;SDS011;61084;55.816;37.036;2023-05-10T14:05:46;6.30;;;1.92;;
72797;SDS011;61084;55.816;37.036;2023-05-10T14:08:12;8.68;;;2.03;;
72797;SDS011;61084;55.816;37.036;2023-05-10T14:10:40;7.22;;;2.17;;
72797;SDS011;61084;55.816;37.036;2023-05-10T14:13:05;2.83;;;2.20;;
72797;SDS011;61084;55.816;37.036;2023-05-10T14:15:32;2.13;;;1.48;;
72797;SDS011;61084;55.816;37.036;2023-05-10T14:17:58;3.55;;;2.00;;
72797;SDS011;61084;55.816;37.036;2023-05-10T14:20:24;4.82;;;1.60;;
72797;SDS011;61084;55.816;37.036;2023-05-10T14:22:51;3.55;;;1.33;;
72797;SDS011;61084;55.816;37.036;2023-05-10T14:25:17;5.38;;;1.42;;
72797;SDS011;61084;55.816;37.036;2023-05-10T14:27:43;6.20;;;1.38;;
72797;SDS011;61084;55.816;37.036;2023-05-10T14:30:09;3.45;;;1.70;;
72797;SDS011;61084;55.816;37.036;2023-05-10T14:32:36;1.75;;;1.35;;
72797;SDS011;61084;55.816;37.036;2023-05-10T14:35:02;7.70;;;1.48;;
72797;SDS011;61084;55.816;37.036;2023-05-10T14:37:29;3.90;;;1.30;;
72797;SDS011;61084;55.816;37.036;2023-05-10T14:39:55;5.35;;;1.52;;
72797;SDS011;61084;55.816;37.036;2023-05-10T14:42:21;3.10;;;1.77;;
72797;SDS011;61084;55.816;37.036;2023-05-10T14:44:47;5.15;;;1.30;;
72797;SDS011;61084;55.816;37.036;2023-05-10T14:47:13;5.18;;;1.80;;
72797;SDS011;61084;55.816;37.036;2023-05-10T14:49:39;2.72;;;1.38;;
72797;SDS011;61084;55.816;37.036;2023-05-10T14:52:06;5.63;;;1.88;;
72797;SDS011;61084;55.816;37.036;2023-05-10T14:54:32;2.05;;;1.30;;
72797;SDS011;61084;55.816;37.036;2023-05-10T14:56:59;3.30;;;1.35;;
72797;SDS011;61084;55.816;37.036;2023-05-10T14:59:25;4.30;;;1.95;;
72797;SDS011;61084;55.816;37.036;2023-05-10T15:01:51;2.95;;;1.58;;
72797;SDS011;61084;55.816;37.036;2023-05-10T15:04:17;2.60;;;1.50;;
72797;SDS011;61084;55.816;37.036;2023-05-10T15:06:43;4.70;;;1.90;;
72797;SDS011;61084;55.816;37.036;2023-05-10T15:09:10;6.63;;;2.10;;
72797;SDS011;61084;55.816;37.036;2023-05-10T15:11:36;6.43;;;1.80;;
72797;SDS011;61084;55.816;37.036;2023-05-10T15:14:01;4.35;;;2.25;;
72797;SDS011;61084;55.816;37.036;2023-05-10T15:16:28;8.75;;;2.47;;
72797;SDS011;61084;55.816;37.036;2023-05-10T15:21:20;5.88;;;1.75;;
72797;SDS011;61084;55.816;37.036;2023-05-10T15:26:12;2.95;;;1.40;;
72797;SDS011;61084;55.816;37.036;2023-05-10T15:28:38;5.05;;;1.48;;
72797;SDS011;61084;55.816;37.036;2023-05-10T15:31:04;2.50;;;1.17;;
72797;SDS011;61084;55.816;37.036;2023-05-10T15:33:30;2.53;;;1.27;;
72797;SDS011;61084;55.816;37.036;2023-05-10T15:35:55;9.85;;;1.70;;
72797;SDS011;61084;55.816;37.036;2023-05-10T15:38:21;4.80;;;1.20;;
72797;SDS011;61084;55.816;37.036;2023-05-10T15:43:13;7.53;;;1.50;;
72797;SDS011;61084;55.816;37.036;2023-05-10T15:45:40;3.08;;;1.40;;
72797;SDS011;61084;55.816;37.036;2023-05-10T15:48:06;3.60;;;1.50;;
72797;SDS011;61084;55.816;37.036;2023-05-10T15:50:32;3.05;;;1.40;;
72797;SDS011;61084;55.816;37.036;2023-05-10T15:55:25;14.88;;;2.47;;
72797;SDS011;61084;55.816;37.036;2023-05-10T15:57:52;10.02;;;1.33;;